Airfield :







YOU CAN JOIN US ON...

 
LOGIN :

Register | Disclaimer

   EN    FR    IT 

 









Legend :    VFR   Marginal VFR   IFR   Intensive IFR   Very Intensive IFR
Visi :
Ceiling :
>= 8 km
>= 3000ft
5 to 8 km
1000 to 3000 ft
1500m to 5 km
500 to 1000 ft
800 to 1500m
200 to 500 ft
< 800m
< 200 ft
Symbols :   Thunderstorms  Fog  Heavy snow  Heavy precipitations  Wind > 20 kt







- Airport Elevation : 172 ft
- IATA code : YYY


CYYY - Mont Joli

CURRENT METAR :
  • 190100Z 31017KT 30SM BKN040 M07/M15 A3018 RMK SC7 SLP225

EXPIRED METARs :
  • 190024Z 31017G22KT 30SM BKN030 M07/M14 A3017 RMK SC7 SLP223
  • 190000Z 30017KT 15SM -SN OVC030 M07/M14 A3016 RMK SC8 SLP220
  • 182300Z 30013G18KT 10SM -SN OVC030 M07/M13 A3013 RMK SC8 SLP209
  • 182250Z 29014KT 10SM -SN OVC040 M07/M13 A3013 RMK SC8 SLP207

TAF TAF CYYY
Valid from the 18 at 20:00 until the 19 at 08:00 UTC


181939Z 1820/1908 26012KT P6SM BKN030
TEMPO 1820/1908 4SM -SN OVC030
BECMG 1822/1824 30012KT RMK NXT FCST BY 190200Z
CZUL FIR / North America



MET'MAP, your aeronautical weather chart ! - Copyright ORBIFLY December 2007 - Disclaimer

ORBIFLY MET'MAP TEAM :

Programming & Development : Alexandra Zaïnal
Concept & Development : Baudouin d'Aumeries
Co-Development & Prog : Marc-Olivier Méhu
Technical & hardware support : Manuel Goepfert

Contact : metmap@orbifly.com




SOURCES & CREDITS :

   NOAA